Time;durP1;ratioP1;P1;durP2;ratioP2;P2;SDS_P1;SDS_P2;PMS_P1;PMS_P2;Temp;Humidity;BMP_temperature;BMP_pressure;BME280_temperature;BME280_humidity;BME280_pressure;Samples;Min_cycle;Max_cycle;Signal;HPM_P1;HPM_P2
2022/09/10 01:35:10;;;;;;;36.77;34.67;;;15.40;99.90;;;;;;5231212;23;20505;-72
2022/09/10 01:37:39;;;;;;;35.60;33.40;;;15.40;99.90;;;;;;4999341;28;20452;-72
2022/09/10 01:40:07;;;;;;;38.13;35.83;;;15.30;99.90;;;;;;5000162;28;20608;-73
2022/09/10 01:42:37;;;;;;;37.63;35.10;;;15.40;99.90;;;;;;5005928;28;20504;-72
2022/09/10 01:45:04;;;;;;;35.93;33.93;;;15.30;99.90;;;;;;5000568;28;20450;-72
2022/09/10 01:47:51;;;;;;;37.00;34.50;;;15.30;99.90;;;;;;4999295;28;20454;-72
2022/09/10 01:50:24;;;;;;;35.60;33.60;;;15.30;99.90;;;;;;4997836;28;20482;-73
2022/09/10 01:53:05;;;;;;;36.60;34.40;;;15.40;99.90;;;;;;4998329;28;21015;-73
2022/09/10 01:55:40;;;;;;;38.20;35.90;;;15.40;99.90;;;;;;4998867;28;20952;-72
2022/09/10 01:58:16;;;;;;;37.07;34.67;;;15.50;99.90;;;;;;4998740;28;20505;-73
2022/09/10 02:00:49;;;;;;;36.63;34.63;;;15.50;99.90;;;;;;4999710;28;20469;-72
2022/09/10 02:03:19;;;;;;;36.93;34.60;;;15.50;99.90;;;;;;4996959;28;20451;-73
2022/09/10 02:05:52;;;;;;;35.60;33.60;;;15.40;99.90;;;;;;4999024;28;20568;-72
2022/09/10 02:08:22;;;;;;;35.30;33.30;;;15.50;99.90;;;;;;4997445;28;20463;-73
2022/09/10 02:10:54;;;;;;;35.50;33.33;;;15.40;99.90;;;;;;4998603;28;20486;-72
2022/09/10 02:13:22;;;;;;;35.00;33.10;;;15.30;99.90;;;;;;4999722;28;20442;-73
2022/09/10 02:15:50;;;;;;;35.87;33.87;;;15.30;99.90;;;;;;5000489;28;20473;-73
2022/09/10 02:18:17;;;;;;;36.00;33.87;;;15.40;99.90;;;;;;4999103;28;20483;-73
2022/09/10 02:20:44;;;;;;;35.60;33.50;;;15.40;99.90;;;;;;4999554;28;20469;-74
2022/09/10 02:23:15;;;;;;;37.23;35.03;;;15.40;99.90;;;;;;5000731;28;20549;-73
2022/09/10 02:25:42;;;;;;;37.50;35.10;;;15.40;99.90;;;;;;4999929;28;20633;-73
2022/09/10 02:28:09;;;;;;;36.97;34.43;;;15.50;99.90;;;;;;4998418;28;20905;-73
2022/09/10 02:30:36;;;;;;;36.00;34.00;;;15.50;99.90;;;;;;4999928;28;20493;-72
2022/09/10 02:33:03;;;;;;;36.50;34.17;;;15.50;99.90;;;;;;4999582;28;21000;-73
2022/09/10 02:35:30;;;;;;;37.43;35.17;;;15.60;99.90;;;;;;4998252;28;20490;-73
2022/09/10 02:37:58;;;;;;;36.43;34.17;;;15.60;99.90;;;;;;5000060;28;20484;-73
2022/09/10 02:40:30;;;;;;;36.50;34.50;;;15.50;99.90;;;;;;4999891;28;20529;-72
2022/09/10 02:42:57;;;;;;;37.57;35.33;;;15.50;99.90;;;;;;4996788;28;20455;-74
2022/09/10 02:45:23;;;;;;;38.63;35.10;;;15.50;99.90;;;;;;4998872;28;20446;-74
2022/09/10 02:47:50;;;;;;;36.00;33.97;;;15.40;99.90;;;;;;4999693;28;20764;-73
2022/09/10 02:50:17;;;;;;;35.47;33.20;;;15.40;99.90;;;;;;4998272;28;20988;-73
2022/09/10 02:52:45;;;;;;;34.27;32.10;;;15.40;99.90;;;;;;4998623;28;20446;-73
2022/09/10 02:55:12;;;;;;;35.90;33.80;;;15.40;99.90;;;;;;5000223;28;20442;-73
2022/09/10 02:57:41;;;;;;;35.87;33.67;;;15.40;99.90;;;;;;4998496;28;20848;-75
2022/09/10 03:00:09;;;;;;;35.83;33.40;;;15.40;99.90;;;;;;4997548;28;20824;-73
2022/09/10 03:02:36;;;;;;;35.23;33.13;;;15.30;99.90;;;;;;4994019;28;20803;-73
2022/09/10 03:05:04;;;;;;;37.13;34.70;;;15.30;99.90;;;;;;4997758;28;20485;-74
2022/09/10 03:07:31;;;;;;;36.50;34.17;;;15.30;99.90;;;;;;4999689;28;20900;-73
2022/09/10 03:09:58;;;;;;;36.47;33.97;;;15.30;99.90;;;;;;4998436;28;20501;-74
2022/09/10 03:12:24;;;;;;;34.97;32.77;;;15.30;99.90;;;;;;4998063;28;20441;-74
2022/09/10 03:14:52;;;;;;;34.47;32.30;;;15.40;99.90;;;;;;4999379;28;20438;-74
2022/09/10 03:17:19;;;;;;;33.50;31.40;;;15.30;99.90;;;;;;4998042;28;20839;-73
2022/09/10 03:19:46;;;;;;;33.00;30.80;;;15.30;99.90;;;;;;4997901;28;20472;-74
2022/09/10 03:22:12;;;;;;;33.70;31.60;;;15.30;99.90;;;;;;4999580;28;20473;-74
2022/09/10 03:24:39;;;;;;;34.00;32.10;;;15.30;99.90;;;;;;4997946;28;20462;-74
2022/09/10 03:27:06;;;;;;;33.40;31.40;;;15.30;99.90;;;;;;4997612;28;20438;-74
2022/09/10 03:29:32;;;;;;;34.10;31.90;;;15.30;99.90;;;;;;4999384;28;20524;-73
2022/09/10 03:32:01;;;;;;;32.73;30.83;;;15.40;99.90;;;;;;4998256;28;20450;-74
2022/09/10 03:34:27;;;;;;;32.63;30.60;;;15.20;99.90;;;;;;4997146;28;20474;-73
2022/09/10 03:36:54;;;;;;;32.83;30.67;;;15.20;99.90;;;;;;4998941;28;20442;-73
2022/09/10 03:39:21;;;;;;;32.70;30.80;;;15.10;99.90;;;;;;4991967;28;20454;-74
2022/09/10 03:41:48;;;;;;;31.90;30.10;;;15.20;99.90;;;;;;4989614;28;20455;-73
2022/09/10 03:44:16;;;;;;;33.33;31.37;;;15.20;99.90;;;;;;4989735;28;20462;-74
2022/09/10 03:46:44;;;;;;;30.63;28.83;;;15.10;99.90;;;;;;4989663;28;20458;-74
2022/09/10 03:49:12;;;;;;;30.97;29.27;;;15.10;99.90;;;;;;4989238;28;20557;-73
2022/09/10 03:51:39;;;;;;;30.40;28.50;;;15.10;99.90;;;;;;4989260;28;20830;-73
2022/09/10 03:54:05;;;;;;;30.73;28.93;;;15.10;99.90;;;;;;4989469;28;20490;-73
2022/09/10 03:56:32;;;;;;;33.50;31.30;;;15.10;99.90;;;;;;4989313;28;20451;-72
2022/09/10 03:58:59;;;;;;;31.77;30.07;;;15.10;99.90;;;;;;4989599;28;20453;-74
2022/09/10 04:01:26;;;;;;;32.17;30.23;;;15.10;99.90;;;;;;4989178;28;20453;-72
2022/09/10 04:03:55;;;;;;;32.07;30.17;;;15.00;99.90;;;;;;4989075;28;20455;-72
2022/09/10 04:06:23;;;;;;;33.03;30.83;;;15.00;99.90;;;;;;4989252;28;20712;-72
2022/09/10 04:08:50;;;;;;;30.77;29.07;;;15.20;99.90;;;;;;4989131;28;20439;-72
2022/09/10 04:11:17;;;;;;;30.53;28.83;;;15.00;99.90;;;;;;4988984;28;20486;-72
2022/09/10 04:13:45;;;;;;;31.60;29.70;;;15.10;99.90;;;;;;4989496;28;20459;-72
2022/09/10 04:16:12;;;;;;;30.80;29.20;;;15.20;99.90;;;;;;4989351;28;20461;-73
2022/09/10 04:18:38;;;;;;;31.87;29.97;;;15.10;99.90;;;;;;4989244;28;20967;-73
2022/09/10 04:21:05;;;;;;;31.93;29.80;;;15.10;99.90;;;;;;4989118;28;20447;-72
2022/09/10 04:23:33;;;;;;;34.03;31.93;;;15.20;99.90;;;;;;4988945;28;20788;-72
2022/09/10 04:26:00;;;;;;;33.17;31.27;;;15.10;99.90;;;;;;4989047;28;20451;-73
2022/09/10 04:28:27;;;;;;;31.60;29.90;;;15.10;99.90;;;;;;4989316;28;20462;-72
2022/09/10 04:30:53;;;;;;;31.57;29.70;;;15.10;99.90;;;;;;4988771;28;20586;-73
2022/09/10 04:33:20;;;;;;;31.57;29.60;;;15.10;99.90;;;;;;4988603;28;20493;-72
2022/09/10 04:35:47;;;;;;;30.20;28.60;;;15.20;99.90;;;;;;4988814;28;20462;-74
2022/09/10 04:38:13;;;;;;;30.07;28.47;;;15.10;99.90;;;;;;4988873;28;20455;-73
2022/09/10 04:40:46;;;;;;;30.67;28.90;;;15.10;99.90;;;;;;4988952;28;20933;-73
2022/09/10 04:43:13;;;;;;;29.27;27.70;;;15.10;99.90;;;;;;4989053;28;20465;-72
2022/09/10 04:45:40;;;;;;;27.87;26.23;;;15.10;99.90;;;;;;4988775;28;20454;-70
2022/09/10 04:48:07;;;;;;;27.07;25.57;;;15.10;99.90;;;;;;4986824;28;20455;-73
2022/09/10 04:50:34;;;;;;;25.17;23.97;;;15.20;99.90;;;;;;4987932;28;20493;-72
2022/09/10 04:53:01;;;;;;;25.50;24.30;;;15.20;99.90;;;;;;4989165;28;20977;-73
2022/09/10 04:55:30;;;;;;;25.77;24.37;;;15.20;99.90;;;;;;4989285;28;20457;-72
2022/09/10 04:57:58;;;;;;;24.80;23.60;;;15.30;99.90;;;;;;4988961;28;20454;-73
2022/09/10 05:00:25;;;;;;;24.30;23.20;;;17.90;99.90;;;;;;4989032;28;20817;-73
2022/09/10 05:02:52;;;;;;;24.00;23.00;;;15.30;99.90;;;;;;4988888;28;20454;-72
2022/09/10 05:05:18;;;;;;;23.33;22.13;;;15.30;99.90;;;;;;4989082;28;20470;-72
2022/09/10 05:07:45;;;;;;;22.47;21.40;;;15.40;99.90;;;;;;4989242;28;20454;-73
2022/09/10 05:10:12;;;;;;;20.60;19.70;;;15.40;99.90;;;;;;4989001;28;20493;-73
2022/09/10 05:12:38;;;;;;;20.77;19.70;;;15.40;99.90;;;;;;4988915;28;20470;-73
2022/09/10 05:15:08;;;;;;;20.03;18.97;;;15.40;99.90;;;;;;4988711;28;20483;-73
2022/09/10 05:17:35;;;;;;;18.40;17.57;;;15.50;99.90;;;;;;4988662;28;20459;-75
2022/09/10 05:20:04;;;;;;;16.40;15.80;;;15.50;99.90;;;;;;4988881;28;20941;-76
2022/09/10 05:22:32;;;;;;;16.37;15.67;;;15.50;99.90;;;;;;4988790;28;20996;-76
2022/09/10 05:24:58;;;;;;;16.00;15.30;;;15.60;99.90;;;;;;4994157;28;20451;-75
2022/09/10 05:27:25;;;;;;;15.00;14.40;;;15.60;99.90;;;;;;4998730;28;20442;-76
2022/09/10 05:29:52;;;;;;;15.17;14.53;;;15.60;99.90;;;;;;5001409;28;20685;-75
2022/09/10 05:32:20;;;;;;;15.07;14.47;;;15.70;99.90;;;;;;4999521;28;20478;-75
2022/09/10 05:34:47;;;;;;;15.03;14.40;;;15.80;99.90;;;;;;5000592;28;20862;-75
2022/09/10 05:37:14;;;;;;;14.90;14.30;;;15.90;99.90;;;;;;5002027;28;20489;-75
2022/09/10 05:39:42;;;;;;;15.20;14.40;;;15.90;99.90;;;;;;5000248;28;20439;-75
2022/09/10 05:42:08;;;;;;;15.27;14.53;;;16.00;99.90;;;;;;5000653;28;20568;-75
2022/09/10 05:44:35;;;;;;;14.83;14.33;;;15.90;99.90;;;;;;5001463;28;20446;-75
2022/09/10 05:47:02;;;;;;;15.03;14.30;;;15.90;99.90;;;;;;4999475;28;20463;-74
2022/09/10 05:49:30;;;;;;;15.27;14.47;;;15.90;99.90;;;;;;5000337;28;20438;-75
2022/09/10 05:51:56;;;;;;;14.43;13.87;;;16.00;99.90;;;;;;5001113;28;20831;-76
2022/09/10 05:54:23;;;;;;;15.40;14.60;;;16.00;99.90;;;;;;4999451;28;20446;-75
2022/09/10 05:56:50;;;;;;;15.50;14.60;;;16.00;99.90;;;;;;4999600;28;20454;-74
2022/09/10 05:59:17;;;;;;;15.57;14.87;;;16.00;99.90;;;;;;5000959;28;20442;-74
2022/09/10 06:01:43;;;;;;;14.60;14.00;;;16.10;99.90;;;;;;4999734;28;20443;-74
2022/09/10 06:04:10;;;;;;;14.70;14.00;;;16.10;99.90;;;;;;4999334;28;20457;-75
2022/09/10 06:06:38;;;;;;;14.17;13.67;;;16.00;99.90;;;;;;5000679;28;20461;-74
2022/09/10 06:09:05;;;;;;;13.97;13.37;;;16.00;99.90;;;;;;4999569;28;20929;-75
2022/09/10 06:11:32;;;;;;;14.90;14.07;;;16.10;99.90;;;;;;4999241;28;20481;-75
2022/09/10 06:13:58;;;;;;;14.33;13.73;;;16.20;99.90;;;;;;5001054;28;20453;-75
2022/09/10 06:16:25;;;;;;;14.37;13.87;;;16.20;99.90;;;;;;4999384;28;20447;-74
2022/09/10 06:18:53;;;;;;;14.77;14.27;;;16.20;99.90;;;;;;4998501;28;20453;-74
2022/09/10 06:21:20;;;;;;;14.53;13.93;;;16.30;99.90;;;;;;5000543;28;21220;-73
2022/09/10 06:23:52;;;;;;;14.00;13.50;;;16.20;99.90;;;;;;4999558;28;20520;-73
2022/09/10 06:26:19;;;;;;;15.03;14.30;;;16.30;99.90;;;;;;4998456;28;20458;-73
2022/09/10 06:28:46;;;;;;;15.90;15.20;;;16.40;99.90;;;;;;4999775;28;20457;-73
2022/09/10 06:31:16;;;;;;;16.70;15.90;;;16.50;99.90;;;;;;5000565;28;20494;-72
2022/09/10 06:33:43;;;;;;;14.90;14.30;;;16.40;99.90;;;;;;4996504;28;20526;-72
2022/09/10 06:36:11;;;;;;;14.30;13.80;;;16.40;99.90;;;;;;4998901;28;20537;-73
2022/09/10 06:38:38;;;;;;;16.17;15.20;;;16.40;99.90;;;;;;5000195;28;20497;-73
2022/09/10 06:41:08;;;;;;;16.07;15.10;;;16.40;99.90;;;;;;4998993;28;20451;-72
2022/09/10 06:43:36;;;;;;;15.10;14.50;;;16.50;99.90;;;;;;4998169;28;20452;-72
2022/09/10 06:46:08;;;;;;;14.90;14.30;;;16.70;99.90;;;;;;4996277;28;20484;-72
2022/09/10 06:48:39;;;;;;;14.73;14.00;;;16.70;99.90;;;;;;4998139;28;20458;-72
2022/09/10 06:51:07;;;;;;;15.27;14.53;;;;;;;;;;4997090;28;20478;-73
2022/09/10 06:53:35;;;;;;;14.93;14.33;;;16.80;99.90;;;;;;4998126;28;20477;-72
2022/09/10 06:56:04;;;;;;;16.10;15.40;;;16.90;99.90;;;;;;4996163;28;20470;-72
2022/09/10 06:58:33;;;;;;;16.07;15.27;;;17.10;99.90;;;;;;4998604;28;20544;-73
2022/09/10 07:01:07;;;;;;;14.00;13.50;;;17.30;99.90;;;;;;4998084;28;20439;-73
2022/09/10 07:03:34;;;;;;;13.50;12.70;;;17.30;99.90;;;;;;4997732;28;20481;-73
2022/09/10 07:06:03;;;;;;;14.00;13.50;;;17.30;99.90;;;;;;5000008;28;20465;-73
2022/09/10 07:08:30;;;;;;;14.43;13.73;;;17.40;99.90;;;;;;4999172;28;20980;-72
2022/09/10 07:11:00;;;;;;;13.97;13.47;;;17.40;99.90;;;;;;4997840;28;20482;-73
2022/09/10 07:13:27;;;;;;;14.10;13.60;;;17.40;99.90;;;;;;4999106;28;20450;-74
2022/09/10 07:15:55;;;;;;;14.40;13.40;;;17.20;99.90;;;;;;4999343;28;20474;-73
2022/09/10 07:18:22;;;;;;;13.90;13.20;;;17.30;99.90;;;;;;4999553;28;20790;-74
2022/09/10 07:20:48;;;;;;;12.77;12.27;;;17.40;99.90;;;;;;4998399;28;21257;-73
2022/09/10 07:23:17;;;;;;;13.70;13.20;;;17.60;99.90;;;;;;4997268;28;20451;-72
2022/09/10 07:25:45;;;;;;;13.60;13.10;;;17.80;99.90;;;;;;4997775;28;20451;-72
2022/09/10 07:28:14;;;;;;;13.30;12.80;;;17.90;99.90;;;;;;5000506;28;20493;-72
2022/09/10 07:30:41;;;;;;;14.80;14.30;;;17.80;99.90;;;;;;5008769;28;20494;-73
2022/09/10 07:33:10;;;;;;;13.43;12.83;;;17.90;99.90;;;;;;5008200;28;20503;-72
2022/09/10 07:35:38;;;;;;;12.97;12.57;;;18.00;99.90;;;;;;5007884;28;20898;-71
2022/09/10 07:38:05;;;;;;;13.07;12.67;;;18.10;99.90;;;;;;5007974;28;20717;-72
2022/09/10 07:40:32;;;;;;;12.87;12.47;;;18.40;99.90;;;;;;4998268;28;20450;-72
2022/09/10 07:42:59;;;;;;;13.07;12.57;;;18.50;99.90;;;;;;4998388;28;20462;-72
2022/09/10 07:45:27;;;;;;;12.77;12.37;;;18.60;99.90;;;;;;4997360;28;20447;-73
2022/09/10 07:47:54;;;;;;;13.10;12.70;;;18.40;99.90;;;;;;4998514;28;20948;-72
2022/09/10 07:50:22;;;;;;;13.53;12.93;;;18.50;99.90;;;;;;4997975;28;20783;-73
2022/09/10 07:52:49;;;;;;;12.63;12.20;;;18.80;99.90;;;;;;4997007;28;20451;-72
2022/09/10 07:55:16;;;;;;;12.80;12.40;;;18.80;99.90;;;;;;4996502;28;20453;-72
2022/09/10 07:57:44;;;;;;;12.53;12.13;;;18.90;99.90;;;;;;4996931;28;20558;-72
2022/09/10 08:00:14;;;;;;;12.60;12.10;;;18.90;99.90;;;;;;4989770;28;20505;-72
2022/09/10 08:02:41;;;;;;;12.90;12.40;;;18.90;99.90;;;;;;4989800;28;20467;-73
2022/09/10 08:05:10;;;;;;;12.20;11.80;;;18.70;99.90;;;;;;4989899;28;20463;-73
2022/09/10 08:07:38;;;;;;;12.40;12.00;;;18.70;99.90;;;;;;4995664;28;20661;-72
2022/09/10 08:10:08;;;;;;;12.27;11.87;;;18.70;99.90;;;;;;4997534;28;20449;-73
2022/09/10 08:12:35;;;;;;;12.90;12.50;;;18.70;99.90;;;;;;4995235;28;20824;-72
2022/09/10 08:15:02;;;;;;;12.90;12.30;;;18.90;99.90;;;;;;4998125;28;20457;-72
2022/09/10 08:17:29;;;;;;;12.73;12.23;;;19.20;99.90;;;;;;4999413;28;20900;-73
2022/09/10 08:19:56;;;;;;;12.67;12.17;;;19.60;99.90;;;;;;4997811;28;20451;-73
2022/09/10 08:22:23;;;;;;;12.60;12.20;;;19.90;99.90;;;;;;4997792;28;20438;-73
2022/09/10 08:24:51;;;;;;;13.20;12.50;;;20.30;99.90;;;;;;4998900;28;20447;-73
2022/09/10 08:27:18;;;;;;;13.13;12.57;;;20.60;99.90;;;;;;4997905;28;20451;-73
2022/09/10 08:29:44;;;;;;;12.60;12.20;;;20.30;99.90;;;;;;4997822;28;20453;-73
2022/09/10 08:32:12;;;;;;;12.63;12.20;;;20.50;99.90;;;;;;4998907;28;20968;-74
2022/09/10 08:34:39;;;;;;;12.77;12.30;;;20.50;99.90;;;;;;4997623;28;20502;-73
2022/09/10 08:37:06;;;;;;;13.17;12.43;;;20.60;99.90;;;;;;5006175;28;20641;-73
2022/09/10 08:39:33;;;;;;;12.80;12.40;;;20.80;99.90;;;;;;5009645;28;20764;-74
2022/09/10 08:42:05;;;;;;;12.37;11.80;;;20.80;99.90;;;;;;5009874;28;20473;-74
2022/09/10 08:44:37;;;;;;;11.83;11.43;;;20.80;99.90;;;;;;5009467;28;20461;-74
2022/09/10 08:47:20;;;;;;;12.13;11.73;;;21.20;99.90;;;;;;5009407;28;20457;-73
2022/09/10 08:49:51;;;;;;;11.63;11.33;;;21.20;99.90;;;;;;5009559;28;20465;-74
2022/09/10 08:52:28;;;;;;;12.23;11.83;;;21.40;99.90;;;;;;5009541;28;20493;-73
2022/09/10 08:55:02;;;;;;;12.10;11.50;;;21.60;99.90;;;;;;5009591;28;20456;-74
2022/09/10 08:57:35;;;;;;;12.27;11.67;;;21.70;99.90;;;;;;5009630;28;20449;-74
2022/09/10 09:00:03;;;;;;;12.47;11.87;;;21.60;99.90;;;;;;5008926;28;20969;-73
2022/09/10 09:02:38;;;;;;;11.70;11.30;;;21.60;99.90;;;;;;5010988;28;20445;-74
2022/09/10 09:05:12;;;;;;;12.40;12.00;;;21.40;99.90;;;;;;4994395;28;20800;-73
2022/09/10 09:07:39;;;;;;;13.03;12.53;;;21.00;99.90;;;;;;4993023;28;20465;-73
2022/09/10 09:10:18;;;;;;;11.50;11.03;;;20.80;99.90;;;;;;4992654;28;20509;-73
2022/09/10 09:12:55;;;;;;;12.20;11.80;;;20.80;99.90;;;;;;4992861;28;20486;-74
2022/09/10 09:15:29;;;;;;;12.90;12.37;;;21.00;99.90;;;;;;4992629;28;20537;-74
2022/09/10 09:18:09;;;;;;;10.13;9.73;;;21.40;99.90;;;;;;4992929;28;20454;-74
2022/09/10 09:20:43;;;;;;;11.17;10.63;;;22.10;99.90;;;;;;4992538;28;20537;-74
2022/09/10 09:23:20;;;;;;;12.50;11.80;;;22.40;99.90;;;;;;4992880;28;20813;-74
2022/09/10 09:25:48;;;;;;;12.40;11.80;;;23.30;99.90;;;;;;4992804;28;20545;-75
2022/09/10 09:28:22;;;;;;;13.23;12.70;;;23.30;99.90;;;;;;4992831;28;20525;-74
2022/09/10 09:30:51;;;;;;;11.80;11.40;;;23.10;99.90;;;;;;4992839;28;20467;-75
2022/09/10 09:33:22;;;;;;;14.07;13.27;;;22.80;99.90;;;;;;4991917;28;20481;-75
2022/09/10 09:35:53;;;;;;;13.10;12.57;;;22.90;99.90;;;;;;4992114;28;20824;-74
2022/09/10 09:38:23;;;;;;;10.73;10.33;;;22.80;99.90;;;;;;4992133;28;20478;-75
2022/09/10 09:40:53;;;;;;;11.80;11.40;;;22.90;99.90;;;;;;4991954;28;20482;-75
2022/09/10 09:43:32;;;;;;;11.97;11.57;;;23.40;99.90;;;;;;4991915;28;20776;-76
2022/09/10 09:45:59;;;;;;;12.30;11.70;;;23.80;98.20;;;;;;4992223;28;20497;-75
2022/09/10 09:48:37;;;;;;;13.80;13.10;;;23.90;98.60;;;;;;4991936;28;20575;-75
2022/09/10 09:51:04;;;;;;;12.80;12.20;;;24.00;96.40;;;;;;4991459;28;20477;-75
2022/09/10 09:53:31;;;;;;;11.80;11.40;;;23.60;96.90;;;;;;4991897;28;20534;-75
2022/09/10 09:56:00;;;;;;;12.90;12.40;;;22.60;99.90;;;;;;4992422;28;20454;-75
2022/09/10 09:58:30;;;;;;;10.80;10.30;;;22.90;98.40;;;;;;4992076;28;20458;-76
2022/09/10 10:01:13;;;;;;;12.90;12.33;;;22.70;98.90;;;;;;4992003;28;20462;-77
2022/09/10 10:03:49;;;;;;;12.43;11.93;;;22.50;98.40;;;;;;4991485;28;20455;-75
2022/09/10 10:06:18;;;;;;;12.27;11.77;;;22.30;99.40;;;;;;4991796;28;20874;-75
2022/09/10 10:08:52;;;;;;;12.83;12.10;;;22.40;99.90;;;;;;4992066;28;20454;-76
2022/09/10 10:11:21;;;;;;;13.47;13.07;;;22.30;99.90;;;;;;4992031;28;20467;-75
2022/09/10 10:13:51;;;;;;;13.87;12.83;;;22.00;99.80;;;;;;4991246;28;20457;-76
2022/09/10 10:16:22;;;;;;;10.20;9.80;;;21.50;99.90;;;;;;4991469;28;20517;-75
2022/09/10 10:18:53;;;;;;;10.97;10.47;;;21.70;99.90;;;;;;4991727;28;20451;-75
2022/09/10 10:21:22;;;;;;;12.00;11.40;;;21.90;99.90;;;;;;4991695;28;20466;-75
2022/09/10 10:23:49;;;;;;;11.57;11.10;;;22.00;99.70;;;;;;4991562;28;20487;-75
2022/09/10 10:26:27;;;;;;;12.07;11.60;;;22.20;99.90;;;;;;4991870;28;20948;-74
2022/09/10 10:28:58;;;;;;;11.60;11.23;;;22.30;99.90;;;;;;4991505;28;20451;-75
2022/09/10 10:31:38;;;;;;;12.40;11.73;;;22.40;99.60;;;;;;4991626;28;20529;-76
2022/09/10 10:34:37;;;;;;;12.17;11.70;;;22.70;99.20;;;;;;4991460;28;20805;-75
2022/09/10 10:37:09;;;;;;;13.23;12.40;;;23.10;98.80;;;;;;4989563;28;20546;-76
2022/09/10 10:40:00;;;;;;;11.90;11.40;;;24.00;97.60;;;;;;4991523;28;20459;-76
2022/09/10 10:42:32;;;;;;;12.37;11.80;;;24.10;96.70;;;;;;4991712;28;20447;-76
2022/09/10 10:45:16;;;;;;;12.13;11.63;;;24.10;96.00;;;;;;4991880;28;20454;-76
2022/09/10 10:47:48;;;;;;;12.73;12.20;;;24.10;96.80;;;;;;4991778;28;20466;-76
2022/09/10 10:50:29;;;;;;;11.57;11.27;;;24.20;95.80;;;;;;4991635;28;20454;-76
2022/09/10 10:53:12;;;;;;;12.00;11.40;;;24.00;95.70;;;;;;4991278;28;20486;-77
2022/09/10 10:55:41;;;;;;;11.80;11.40;;;23.60;96.70;;;;;;4991916;28;20451;-77
2022/09/10 10:58:25;;;;;;;12.10;11.60;;;23.60;96.30;;;;;;4991693;28;20466;-78
2022/09/10 11:01:00;;;;;;;11.57;10.93;;;23.80;96.30;;;;;;4991855;28;20891;-77
2022/09/10 11:03:34;;;;;;;12.10;11.70;;;24.70;99.80;;;;;;4992065;28;20452;-77
2022/09/10 11:06:07;;;;;;;11.47;10.93;;;24.70;94.40;;;;;;4991775;28;20459;-77
2022/09/10 11:08:40;;;;;;;11.83;11.40;;;25.60;93.00;;;;;;4991594;28;20477;-78
2022/09/10 11:11:15;;;;;;;11.97;11.47;;;25.70;92.90;;;;;;4991378;28;20548;-77
2022/09/10 11:13:47;;;;;;;12.60;12.10;;;25.60;94.70;;;;;;4991580;28;20486;-78
2022/09/10 11:16:20;;;;;;;12.47;11.60;;;25.60;93.30;;;;;;4991886;28;20462;-79
2022/09/10 11:18:52;;;;;;;11.27;10.60;;;25.40;92.10;;;;;;4992956;28;20466;-79
2022/09/10 11:21:25;;;;;;;11.60;11.20;;;24.60;93.20;;;;;;4995837;28;20466;-80
2022/09/10 11:23:58;;;;;;;12.50;11.87;;;24.70;94.20;;;;;;4998093;28;20451;-79
2022/09/10 11:26:30;;;;;;;10.63;10.23;;;24.70;92.60;;;;;;4996422;28;20451;-79
2022/09/10 11:29:18;;;;;;;11.20;10.80;;;24.50;92.60;;;;;;4999341;28;20439;-79
2022/09/10 11:31:53;;;;;;;11.00;10.60;;;25.00;92.20;;;;;;4992884;28;20537;-80
2022/09/10 11:34:27;;;;;;;10.67;10.33;;;25.00;92.50;;;;;;4997929;28;20465;-78
2022/09/10 11:37:00;;;;;;;11.07;10.70;;;26.00;90.10;;;;;;4998669;28;20481;-79
2022/09/10 11:39:35;;;;;;;11.93;11.40;;;26.50;90.60;;;;;;4994070;28;20456;-79
2022/09/10 11:42:12;;;;;;;12.20;11.50;;;27.10;96.40;;;;;;5001011;28;20446;-78
2022/09/10 11:44:46;;;;;;;11.40;11.00;;;26.80;90.10;;;;;;4998476;28;20958;-80
2022/09/10 11:47:21;;;;;;;11.57;10.87;;;26.50;90.50;;;;;;4998604;28;20450;-79
2022/09/10 11:49:54;;;;;;;11.00;10.60;;;26.00;90.80;;;;;;4996906;28;20940;-79
2022/09/10 11:52:24;;;;;;;11.10;10.70;;;25.40;92.30;;;;;;5001395;28;20489;-79
2022/09/10 11:54:54;;;;;;;11.73;11.33;;;24.50;93.20;;;;;;4999203;28;20470;-78
2022/09/10 11:57:32;;;;;;;11.70;10.90;;;23.90;93.30;;;;;;4999726;28;20447;-79
2022/09/10 12:00:14;;;;;;;11.70;11.10;;;23.40;93.50;;;;;;4999699;28;20493;-78
2022/09/10 12:03:16;;;;;;;11.23;10.83;;;23.20;93.00;;;;;;5001192;28;20482;-79
2022/09/10 12:05:54;;;;;;;11.50;11.10;;;22.70;93.00;;;;;;5001488;28;20453;-79
2022/09/10 12:08:31;;;;;;;10.60;10.10;;;22.50;94.30;;;;;;4999633;28;20450;-78
2022/09/10 12:11:12;;;;;;;11.50;11.10;;;22.10;97.10;;;;;;5002150;28;20499;-79
2022/09/10 12:13:39;;;;;;;11.47;10.87;;;22.00;98.90;;;;;;4999699;28;20482;-79
2022/09/10 12:16:16;;;;;;;12.70;11.90;;;22.40;99.10;;;;;;4998658;28;20447;-80
2022/09/10 12:18:46;;;;;;;11.90;11.47;;;23.00;98.10;;;;;;4998293;28;20525;-79
2022/09/10 12:21:26;;;;;;;11.10;10.53;;;23.30;97.10;;;;;;4999586;28;20446;-80
2022/09/10 12:23:53;;;;;;;11.53;10.83;;;23.40;96.30;;;;;;5000275;28;20657;-79
2022/09/10 12:26:24;;;;;;;10.80;10.40;;;23.40;96.00;;;;;;4999792;28;20438;-80
2022/09/10 12:29:01;;;;;;;11.70;10.93;;;23.20;95.80;;;;;;5001311;28;20501;-80
2022/09/10 12:31:27;;;;;;;11.40;10.70;;;22.90;96.70;;;;;;4995170;28;20450;-80
2022/09/10 12:34:19;;;;;;;10.60;10.20;;;22.90;96.40;;;;;;5003157;28;20816;-81
2022/09/10 12:37:26;;;;;;;10.70;10.27;;;23.00;96.40;;;;;;5000420;28;20446;-80
2022/09/10 12:40:27;;;;;;;11.07;10.37;;;22.70;96.90;;;;;;5005392;28;20963;-79
2022/09/10 12:42:59;;;;;;;10.90;10.20;;;22.80;97.40;;;;;;5001533;28;20536;-79
2022/09/10 12:45:59;;;;;;;11.23;10.37;;;22.90;97.00;;;;;;5003118;28;20438;-80
2022/09/10 12:48:26;;;;;;;11.10;10.70;;;22.80;98.00;;;;;;5002276;28;20529;-80
2022/09/10 12:50:59;;;;;;;10.77;10.30;;;23.40;97.10;;;;;;5005435;28;20507;-80
2022/09/10 12:53:50;;;;;;;11.10;10.53;;;23.90;96.50;;;;;;5002457;28;20526;-79
2022/09/10 12:56:54;;;;;;;10.10;9.70;;;24.30;94.90;;;;;;5003562;28;20463;-79
2022/09/10 12:59:47;;;;;;;11.00;10.60;;;24.30;94.90;;;;;;5004965;28;20445;-80
2022/09/10 13:02:26;;;;;;;10.83;10.37;;;23.90;94.50;;;;;;4992176;28;20456;-78
2022/09/10 13:04:56;;;;;;;11.10;10.67;;;23.80;94.70;;;;;;5003369;28;20452;-79
2022/09/10 13:07:29;;;;;;;11.07;10.67;;;23.00;98.50;;;;;;5005703;28;20869;-78
2022/09/10 13:09:59;;;;;;;11.00;10.50;;;22.90;93.20;;;;;;5002674;28;20464;-78
2022/09/10 13:12:27;;;;;;;10.93;10.33;;;22.50;93.80;;;;;;5003261;28;20481;-77
2022/09/10 13:14:59;;;;;;;9.63;9.30;;;22.40;93.80;;;;;;5002187;28;20462;-78
2022/09/10 13:18:00;;;;;;;11.50;11.00;;;22.10;93.60;;;;;;4995851;28;20458;-78
2022/09/10 13:20:33;;;;;;;10.10;9.70;;;22.30;94.20;;;;;;4996901;28;20461;-79
2022/09/10 13:23:03;;;;;;;10.60;10.20;;;22.90;98.20;;;;;;4996811;28;20447;-80
2022/09/10 13:25:38;;;;;;;11.00;10.57;;;22.90;93.10;;;;;;4995308;28;20883;-80
2022/09/10 13:28:41;;;;;;;10.07;9.63;;;23.10;92.80;;;;;;4995061;28;20963;-79
2022/09/10 13:31:17;;;;;;;10.83;10.30;;;23.30;92.10;;;;;;4994444;28;20450;-81
2022/09/10 13:33:59;;;;;;;10.10;9.70;;;23.50;92.40;;;;;;4994980;28;20593;-80
2022/09/10 13:36:31;;;;;;;10.80;10.40;;;23.30;91.60;;;;;;4994363;28;20454;-79
2022/09/10 13:39:23;;;;;;;10.33;9.80;;;23.20;91.90;;;;;;4993432;28;20457;-79
2022/09/10 13:42:14;;;;;;;11.03;10.63;;;23.10;92.80;;;;;;4993030;28;20561;-78
2022/09/10 13:44:58;;;;;;;10.50;10.00;;;23.10;92.60;;;;;;4984272;28;20462;-78
2022/09/10 13:47:32;;;;;;;11.20;10.80;;;23.00;92.50;;;;;;4991931;28;20829;-78
2022/09/10 13:50:04;;;;;;;11.17;10.33;;;22.90;92.80;;;;;;5000751;28;20462;-78
2022/09/10 13:52:34;;;;;;;9.07;8.73;;;23.00;93.30;;;;;;4998817;28;20983;-79
2022/09/10 13:55:05;;;;;;;10.60;10.00;;;23.10;96.90;;;;;;5003130;28;20852;-77
2022/09/10 13:57:35;;;;;;;10.93;10.43;;;23.20;92.30;;;;;;5000901;28;20442;-78
2022/09/10 14:00:06;;;;;;;10.40;10.00;;;22.90;92.70;;;;;;5003248;28;20853;-78
2022/09/10 14:02:46;;;;;;;11.13;10.60;;;22.70;92.90;;;;;;5002242;28;20447;-78
2022/09/10 14:05:30;;;;;;;10.50;10.10;;;22.80;93.60;;;;;;5000847;28;20447;-78
2022/09/10 14:08:00;;;;;;;9.80;9.37;;;22.90;93.30;;;;;;5001783;28;20431;-78
2022/09/10 14:10:28;;;;;;;10.80;10.33;;;22.80;93.20;;;;;;5000729;28;20945;-78
2022/09/10 14:12:56;;;;;;;9.27;8.87;;;22.70;93.60;;;;;;4993752;28;20486;-76
2022/09/10 14:15:38;;;;;;;11.53;10.83;;;22.30;94.80;;;;;;4993073;28;20455;-78
2022/09/10 14:18:05;;;;;;;10.63;10.10;;;21.70;98.10;;;;;;4993253;28;20455;-78
2022/09/10 14:20:34;;;;;;;10.57;10.17;;;21.10;99.60;;;;;;4993147;28;20802;-80
2022/09/10 14:23:04;;;;;;;11.80;11.30;;;20.70;99.90;;;;;;4993674;28;20486;-79